To NAV CANADA Home Page Login to a new session Search on AWWS site Feedback and Comments Disclaimer Vers la page française équivalente Tips FAQ What's new on the site To the Forecasts and Observations / NOTAM section To "File a Flight Plan" website Publications and other links Update of the User's profile FIC Telephone Numbers My Weather Data Folder Route Weather Data Regional Weather Data Local Weather Data To the Forecasts and Observations / NOTAM section
Request Generated 08/03/2015 at 00:26:20 UTC . Weather information available at that time is displayed.

METAR/TAF

BAKER LAKE/NU    

METAR CYBK 030000Z 10011KT 20SM OVC045 13/09 A2995 RMK SC8 SLP142=
METAR CYBK 022300Z 07012G17KT 20SM OVC045 16/09 A2992 RMK SC8 SLP134
DENSITY ALT 100FT=
METAR CYBK 022200Z 06013KT 20SM OVC045 17/08 A2991 RMK SC8 SLP129
DENSITY ALT 200FT=

TAF CYBK 022338Z 0300/0312 05012KT P6SM BKN040
RMK NXT FCST BY 030600Z=
Your time UTC time
Weather data provided by Environment Canada and NAV CANADA